Weather at Austin Bergstrom International Airport

Public forecast

Using degrees Fahrenheit for public forecast. Weather courtesy of forecast.io.

Current aviation weather report (METAR) for Austin Bergstrom International Airport

Retrieved 2020/09/29 17:53 UTC (37 minutes ago):

KAUS 291753Z 35006G18KT 10SM CLR 26/02 A3021 RMK AO2 SLP223 T02610017 10267 20094 58010

Aviation forecast (TAF) for Austin Bergstrom International Airport

Retrieved 2020/09/29 18:22 UTC (8 minutes ago):

TAF KAUS 291720Z 2918/3024 34007KT P6SM SKC FM300300 00000KT P6SM SKC FM301600 22007KT P6SM SKC FM302000 19005KT P6SM SKC